Home > Products > Valid Products > TAF

000
FTUS43 KDMX 292339
TAFFOD
TAF
KFOD 292339Z 3000/3024 32017G25KT P6SM SKC
     FM300100 31008KT P6SM SKC
     FM300700 22007KT P6SM SKC
     FM301700 25015G23KT P6SM SCT080=



000
FTUS43 KDMX 292339
TAFMCW
TAF
KMCW 292339Z 3000/3024 32026G36KT P6SM FEW070
     FM300100 31017KT P6SM SKC
     FM300400 26009KT P6SM SKC
     FM301800 25016G24KT P6SM BKN080=



000
FTUS43 KDMX 292339
TAFOTM
TAF
KOTM 292339Z 3000/3024 31023G31KT P6SM SKC
     FM300100 31012KT P6SM SKC
     FM300700 25007KT P6SM SKC
     FM301700 24018G26KT P6SM SCT150=



000
FTUS43 KDMX 292339
TAFDSM
TAF
KDSM 292339Z 3000/3024 31019G27KT P6SM SKC
     FM300100 31008KT P6SM SKC
     FM300600 25007KT P6SM SKC
     FM301500 25015KT P6SM SKC
     FM301800 25020G28KT P6SM SCT090=



000
FTUS43 KDMX 292339
TAFALO
TAF
KALO 292339Z 3000/3024 31018G26KT P6SM SKC
     FM300100 30013KT P6SM SKC
     FM300600 25006KT P6SM SKC
     FM301500 25012KT P6SM SKC
     FM301800 26015G23KT P6SM BKN070=



000
FTUS43 KDMX 292339
TAFALO
TAF
KALO 292339Z 3000/3024 31018G26KT P6SM SKC
     FM300100 30013KT P6SM SKC
     FM300600 25006KT P6SM SKC
     FM301500 25012KT P6SM SKC
     FM301800 26015G23KT P6SM BKN070=



000
FTUS43 KDMX 292339
TAFDSM
TAF
KDSM 292339Z 3000/3024 31019G27KT P6SM SKC
     FM300100 31008KT P6SM SKC
     FM300600 25007KT P6SM SKC
     FM301500 25015KT P6SM SKC
     FM301800 25020G28KT P6SM SCT090=



000
FTUS43 KDMX 292339
TAFFOD
TAF
KFOD 292339Z 3000/3024 32017G25KT P6SM SKC
     FM300100 31008KT P6SM SKC
     FM300700 22007KT P6SM SKC
     FM301700 25015G23KT P6SM SCT080=



000
FTUS43 KDMX 292339
TAFMCW
TAF
KMCW 292339Z 3000/3024 32026G36KT P6SM FEW070
     FM300100 31017KT P6SM SKC
     FM300400 26009KT P6SM SKC
     FM301800 25016G24KT P6SM BKN080=



000
FTUS43 KDMX 292339
TAFALO
TAF
KALO 292339Z 3000/3024 31018G26KT P6SM SKC
     FM300100 30013KT P6SM SKC
     FM300600 25006KT P6SM SKC
     FM301500 25012KT P6SM SKC
     FM301800 26015G23KT P6SM BKN070=



000
FTUS43 KDMX 292339
TAFOTM
TAF
KOTM 292339Z 3000/3024 31023G31KT P6SM SKC
     FM300100 31012KT P6SM SKC
     FM300700 25007KT P6SM SKC
     FM301700 24018G26KT P6SM SCT150=



000
FTUS43 KDMX 292339
TAFOTM
TAF
KOTM 292339Z 3000/3024 31023G31KT P6SM SKC
     FM300100 31012KT P6SM SKC
     FM300700 25007KT P6SM SKC
     FM301700 24018G26KT P6SM SCT150=



000
FTUS43 KDMX 292339
TAFFOD
TAF
KFOD 292339Z 3000/3024 32017G25KT P6SM SKC
     FM300100 31008KT P6SM SKC
     FM300700 22007KT P6SM SKC
     FM301700 25015G23KT P6SM SCT080=



000
FTUS43 KDMX 292339
TAFDSM
TAF
KDSM 292339Z 3000/3024 31019G27KT P6SM SKC
     FM300100 31008KT P6SM SKC
     FM300600 25007KT P6SM SKC
     FM301500 25015KT P6SM SKC
     FM301800 25020G28KT P6SM SCT090=



000
FTUS43 KDMX 292339
TAFMCW
TAF
KMCW 292339Z 3000/3024 32026G36KT P6SM FEW070
     FM300100 31017KT P6SM SKC
     FM300400 26009KT P6SM SKC
     FM301800 25016G24KT P6SM BKN080=



000
FTUS43 KDMX 292339
TAFFOD
TAF
KFOD 292339Z 3000/3024 32017G25KT P6SM SKC
     FM300100 31008KT P6SM SKC
     FM300700 22007KT P6SM SKC
     FM301700 25015G23KT P6SM SCT080=



000
FTUS43 KDMX 292339
TAFALO
TAF
KALO 292339Z 3000/3024 31018G26KT P6SM SKC
     FM300100 30013KT P6SM SKC
     FM300600 25006KT P6SM SKC
     FM301500 25012KT P6SM SKC
     FM301800 26015G23KT P6SM BKN070=



000
FTUS43 KDMX 292339
TAFOTM
TAF
KOTM 292339Z 3000/3024 31023G31KT P6SM SKC
     FM300100 31012KT P6SM SKC
     FM300700 25007KT P6SM SKC
     FM301700 24018G26KT P6SM SCT150=



000
FTUS43 KDMX 292339
TAFMCW
TAF
KMCW 292339Z 3000/3024 32026G36KT P6SM FEW070
     FM300100 31017KT P6SM SKC
     FM300400 26009KT P6SM SKC
     FM301800 25016G24KT P6SM BKN080=



000
FTUS43 KDMX 292339
TAFDSM
TAF
KDSM 292339Z 3000/3024 31019G27KT P6SM SKC
     FM300100 31008KT P6SM SKC
     FM300600 25007KT P6SM SKC
     FM301500 25015KT P6SM SKC
     FM301800 25020G28KT P6SM SCT090=



000
FTUS43 KDMX 292047 AAA
TAFDSM
TAF AMD
KDSM 292047Z 2921/3018 31023G33KT P6SM SCT030
     FM300100 31010KT P6SM SKC
     FM301500 25015G24KT P6SM SCT090=



000
FTUS43 KDMX 292047 AAA
TAFDSM
TAF AMD
KDSM 292047Z 2921/3018 31023G33KT P6SM SCT030
     FM300100 31010KT P6SM SKC
     FM301500 25015G24KT P6SM SCT090=



000
FTUS43 KDMX 292047 AAA
TAFDSM
TAF AMD
KDSM 292047Z 2921/3018 31023G33KT P6SM SCT030
     FM300100 31010KT P6SM SKC
     FM301500 25015G24KT P6SM SCT090=



000
FTUS43 KDMX 292047 AAA
TAFDSM
TAF AMD
KDSM 292047Z 2921/3018 31023G33KT P6SM SCT030
     FM300100 31010KT P6SM SKC
     FM301500 25015G24KT P6SM SCT090=



000
FTUS43 KDMX 291736
TAFMCW
TAF
KMCW 291736Z 2918/3018 28025G37KT P6SM BKN022
     FM292000 31026G36KT P6SM SCT025
     FM300000 30015KT P6SM SKC
     FM300500 27007KT P6SM SKC
     FM301500 25016KT P6SM BKN070=



000
FTUS43 KDMX 291736
TAFDSM
TAF
KDSM 291736Z 2918/3018 29025G34KT P6SM BKN040
     FM291900 31026G36KT P6SM BKN028
     FM292300 31014G22KT P6SM SCT030
     FM300100 31010KT P6SM SKC
     FM301500 25015G24KT P6SM SCT090=



000
FTUS43 KDMX 291736
TAFALO
TAF
KALO 291736Z 2918/3018 25025G33KT P6SM BKN040
     FM291900 30025G34KT P6SM BKN026
     FM292300 31015G25KT P6SM SCT026
     FM300100 29013KT P6SM SKC
     FM301500 26015KT P6SM BKN070=



000
FTUS43 KDMX 291736
TAFFOD
TAF
KFOD 291736Z 2918/3018 31022G30KT P6SM BKN025
     FM292000 32017G25KT P6SM SCT025
     FM300100 25005KT P6SM SKC
     FM301500 25015KT P6SM SCT070=



000
FTUS43 KDMX 291736
TAFFOD
TAF
KFOD 291736Z 2918/3018 31022G30KT P6SM BKN025
     FM292000 32017G25KT P6SM SCT025
     FM300100 25005KT P6SM SKC
     FM301500 25015KT P6SM SCT070=



000
FTUS43 KDMX 291736
TAFMCW
TAF
KMCW 291736Z 2918/3018 28025G37KT P6SM BKN022
     FM292000 31026G36KT P6SM SCT025
     FM300000 30015KT P6SM SKC
     FM300500 27007KT P6SM SKC
     FM301500 25016KT P6SM BKN070=



000
FTUS43 KDMX 291736
TAFOTM
TAF
KOTM 291736Z 2918/3018 25017G24KT P6SM SCT050
     FM292000 30023G32KT P6SM BKN040
     FM292200 31023G31KT P6SM BKN028
     FM300100 31012KT P6SM SCT028
     FM301500 25014G20KT P6SM SCT150=



000
FTUS43 KDMX 291736
TAFDSM
TAF
KDSM 291736Z 2918/3018 29025G34KT P6SM BKN040
     FM291900 31026G36KT P6SM BKN028
     FM292300 31014G22KT P6SM SCT030
     FM300100 31010KT P6SM SKC
     FM301500 25015G24KT P6SM SCT090=



000
FTUS43 KDMX 291736
TAFMCW
TAF
KMCW 291736Z 2918/3018 28025G37KT P6SM BKN022
     FM292000 31026G36KT P6SM SCT025
     FM300000 30015KT P6SM SKC
     FM300500 27007KT P6SM SKC
     FM301500 25016KT P6SM BKN070=



000
FTUS43 KDMX 291736
TAFFOD
TAF
KFOD 291736Z 2918/3018 31022G30KT P6SM BKN025
     FM292000 32017G25KT P6SM SCT025
     FM300100 25005KT P6SM SKC
     FM301500 25015KT P6SM SCT070=



000
FTUS43 KDMX 291736
TAFALO
TAF
KALO 291736Z 2918/3018 25025G33KT P6SM BKN040
     FM291900 30025G34KT P6SM BKN026
     FM292300 31015G25KT P6SM SCT026
     FM300100 29013KT P6SM SKC
     FM301500 26015KT P6SM BKN070=



000
FTUS43 KDMX 291736
TAFOTM
TAF
KOTM 291736Z 2918/3018 25017G24KT P6SM SCT050
     FM292000 30023G32KT P6SM BKN040
     FM292200 31023G31KT P6SM BKN028
     FM300100 31012KT P6SM SCT028
     FM301500 25014G20KT P6SM SCT150=



000
FTUS43 KDMX 291736
TAFALO
TAF
KALO 291736Z 2918/3018 25025G33KT P6SM BKN040
     FM291900 30025G34KT P6SM BKN026
     FM292300 31015G25KT P6SM SCT026
     FM300100 29013KT P6SM SKC
     FM301500 26015KT P6SM BKN070=



000
FTUS43 KDMX 291736
TAFOTM
TAF
KOTM 291736Z 2918/3018 25017G24KT P6SM SCT050
     FM292000 30023G32KT P6SM BKN040
     FM292200 31023G31KT P6SM BKN028
     FM300100 31012KT P6SM SCT028
     FM301500 25014G20KT P6SM SCT150=



000
FTUS43 KDMX 291736
TAFDSM
TAF
KDSM 291736Z 2918/3018 29025G34KT P6SM BKN040
     FM291900 31026G36KT P6SM BKN028
     FM292300 31014G22KT P6SM SCT030
     FM300100 31010KT P6SM SKC
     FM301500 25015G24KT P6SM SCT090=



000
FTUS43 KDMX 291736
TAFOTM
TAF
KOTM 291736Z 2918/3018 25017G24KT P6SM SCT050
     FM292000 30023G32KT P6SM BKN040
     FM292200 31023G31KT P6SM BKN028
     FM300100 31012KT P6SM SCT028
     FM301500 25014G20KT P6SM SCT150=



000
FTUS43 KDMX 291736
TAFFOD
TAF
KFOD 291736Z 2918/3018 31022G30KT P6SM BKN025
     FM292000 32017G25KT P6SM SCT025
     FM300100 25005KT P6SM SKC
     FM301500 25015KT P6SM SCT070=



000
FTUS43 KDMX 291736
TAFDSM
TAF
KDSM 291736Z 2918/3018 29025G34KT P6SM BKN040
     FM291900 31026G36KT P6SM BKN028
     FM292300 31014G22KT P6SM SCT030
     FM300100 31010KT P6SM SKC
     FM301500 25015G24KT P6SM SCT090=



000
FTUS43 KDMX 291736
TAFALO
TAF
KALO 291736Z 2918/3018 25025G33KT P6SM BKN040
     FM291900 30025G34KT P6SM BKN026
     FM292300 31015G25KT P6SM SCT026
     FM300100 29013KT P6SM SKC
     FM301500 26015KT P6SM BKN070=



000
FTUS43 KDMX 291736
TAFMCW
TAF
KMCW 291736Z 2918/3018 28025G37KT P6SM BKN022
     FM292000 31026G36KT P6SM SCT025
     FM300000 30015KT P6SM SKC
     FM300500 27007KT P6SM SKC
     FM301500 25016KT P6SM BKN070=



000
FTUS43 KDMX 291140
TAFALO
TAF
KALO 291140Z 2912/3012 18017G25KT P6SM BKN070
     FM291500 22019G27KT P6SM FEW100 BKN250
     FM291800 29025G35KT P6SM BKN040
     FM292300 31015G22KT P6SM SKC
     FM300300 29010KT P6SM SKC
     FM300900 24004KT P6SM SKC=



000
FTUS43 KDMX 291140
TAFMCW
TAF
KMCW 291140Z 2912/3012 18018G27KT P6SM SCT100 BKN250
     FM291500 24019G28KT P6SM BKN200
     FM291700 28025G37KT P6SM BKN035
     FM292000 31026G39KT P6SM FEW040
     FM300000 30015KT P6SM SKC
     FM300500 VRB04KT P6SM SKC=



000
FTUS43 KDMX 291140
TAFDSM
TAF
KDSM 291140Z 2912/3012 19014G21KT P6SM SCT100 BKN250
     FM291500 24018G27KT P6SM BKN200
     FM291700 31025G34KT P6SM BKN040
     FM300000 31014KT P6SM SKC
     FM300600 24005KT P6SM SKC=



000
FTUS43 KDMX 291140
TAFOTM
TAF
KOTM 291140Z 2912/3012 18017G25KT P6SM -SHRA BKN080
     FM291500 21020G28KT P6SM SCT100 BKN250
     FM291800 25021G29KT P6SM SCT040
     FM292000 30023G32KT P6SM FEW040
     FM300000 30012KT P6SM SCT200
     FM300800 25006KT P6SM SKC=



000
FTUS43 KDMX 291140
TAFFOD
TAF
KFOD 291140Z 2912/3012 22016G24KT P6SM BKN250
     FM291600 27018G26KT P6SM BKN035
     FM291800 31022G30KT P6SM BKN030
     FM292000 32017G25KT P6SM SKC
     FM300100 30005KT P6SM SKC=



000
FTUS43 KDMX 291140
TAFOTM
TAF
KOTM 291140Z 2912/3012 18017G25KT P6SM -SHRA BKN080
     FM291500 21020G28KT P6SM SCT100 BKN250
     FM291800 25021G29KT P6SM SCT040
     FM292000 30023G32KT P6SM FEW040
     FM300000 30012KT P6SM SCT200
     FM300800 25006KT P6SM SKC=



000
FTUS43 KDMX 291140
TAFALO
TAF
KALO 291140Z 2912/3012 18017G25KT P6SM BKN070
     FM291500 22019G27KT P6SM FEW100 BKN250
     FM291800 29025G35KT P6SM BKN040
     FM292300 31015G22KT P6SM SKC
     FM300300 29010KT P6SM SKC
     FM300900 24004KT P6SM SKC=



000
FTUS43 KDMX 291140
TAFALO
TAF
KALO 291140Z 2912/3012 18017G25KT P6SM BKN070
     FM291500 22019G27KT P6SM FEW100 BKN250
     FM291800 29025G35KT P6SM BKN040
     FM292300 31015G22KT P6SM SKC
     FM300300 29010KT P6SM SKC
     FM300900 24004KT P6SM SKC=



000
FTUS43 KDMX 291140
TAFDSM
TAF
KDSM 291140Z 2912/3012 19014G21KT P6SM SCT100 BKN250
     FM291500 24018G27KT P6SM BKN200
     FM291700 31025G34KT P6SM BKN040
     FM300000 31014KT P6SM SKC
     FM300600 24005KT P6SM SKC=



000
FTUS43 KDMX 291140
TAFDSM
TAF
KDSM 291140Z 2912/3012 19014G21KT P6SM SCT100 BKN250
     FM291500 24018G27KT P6SM BKN200
     FM291700 31025G34KT P6SM BKN040
     FM300000 31014KT P6SM SKC
     FM300600 24005KT P6SM SKC=



000
FTUS43 KDMX 291140
TAFMCW
TAF
KMCW 291140Z 2912/3012 18018G27KT P6SM SCT100 BKN250
     FM291500 24019G28KT P6SM BKN200
     FM291700 28025G37KT P6SM BKN035
     FM292000 31026G39KT P6SM FEW040
     FM300000 30015KT P6SM SKC
     FM300500 VRB04KT P6SM SKC=



000
FTUS43 KDMX 291140
TAFFOD
TAF
KFOD 291140Z 2912/3012 22016G24KT P6SM BKN250
     FM291600 27018G26KT P6SM BKN035
     FM291800 31022G30KT P6SM BKN030
     FM292000 32017G25KT P6SM SKC
     FM300100 30005KT P6SM SKC=



000
FTUS43 KDMX 291140
TAFOTM
TAF
KOTM 291140Z 2912/3012 18017G25KT P6SM -SHRA BKN080
     FM291500 21020G28KT P6SM SCT100 BKN250
     FM291800 25021G29KT P6SM SCT040
     FM292000 30023G32KT P6SM FEW040
     FM300000 30012KT P6SM SCT200
     FM300800 25006KT P6SM SKC=



000
FTUS43 KDMX 291140
TAFMCW
TAF
KMCW 291140Z 2912/3012 18018G27KT P6SM SCT100 BKN250
     FM291500 24019G28KT P6SM BKN200
     FM291700 28025G37KT P6SM BKN035
     FM292000 31026G39KT P6SM FEW040
     FM300000 30015KT P6SM SKC
     FM300500 VRB04KT P6SM SKC=



000
FTUS43 KDMX 291140
TAFFOD
TAF
KFOD 291140Z 2912/3012 22016G24KT P6SM BKN250
     FM291600 27018G26KT P6SM BKN035
     FM291800 31022G30KT P6SM BKN030
     FM292000 32017G25KT P6SM SKC
     FM300100 30005KT P6SM SKC=



000
FTUS43 KDMX 291140
TAFDSM
TAF
KDSM 291140Z 2912/3012 19014G21KT P6SM SCT100 BKN250
     FM291500 24018G27KT P6SM BKN200
     FM291700 31025G34KT P6SM BKN040
     FM300000 31014KT P6SM SKC
     FM300600 24005KT P6SM SKC=



000
FTUS43 KDMX 291140
TAFALO
TAF
KALO 291140Z 2912/3012 18017G25KT P6SM BKN070
     FM291500 22019G27KT P6SM FEW100 BKN250
     FM291800 29025G35KT P6SM BKN040
     FM292300 31015G22KT P6SM SKC
     FM300300 29010KT P6SM SKC
     FM300900 24004KT P6SM SKC=



000
FTUS43 KDMX 291140
TAFOTM
TAF
KOTM 291140Z 2912/3012 18017G25KT P6SM -SHRA BKN080
     FM291500 21020G28KT P6SM SCT100 BKN250
     FM291800 25021G29KT P6SM SCT040
     FM292000 30023G32KT P6SM FEW040
     FM300000 30012KT P6SM SCT200
     FM300800 25006KT P6SM SKC=



000
FTUS43 KDMX 291140
TAFMCW
TAF
KMCW 291140Z 2912/3012 18018G27KT P6SM SCT100 BKN250
     FM291500 24019G28KT P6SM BKN200
     FM291700 28025G37KT P6SM BKN035
     FM292000 31026G39KT P6SM FEW040
     FM300000 30015KT P6SM SKC
     FM300500 VRB04KT P6SM SKC=



000
FTUS43 KDMX 291140
TAFFOD
TAF
KFOD 291140Z 2912/3012 22016G24KT P6SM BKN250
     FM291600 27018G26KT P6SM BKN035
     FM291800 31022G30KT P6SM BKN030
     FM292000 32017G25KT P6SM SKC
     FM300100 30005KT P6SM SKC=



000
FTUS43 KDMX 290520
TAFDSM
TAF
KDSM 290520Z 2906/3006 16014KT P6SM SKC
     FM291000 18018G26KT P6SM -SHRA SCT015 BKN060
     FM291400 24020G28KT P6SM BKN040
     FM291800 31026G34KT P6SM SCT040
     FM300000 31010KT P6SM SCT200=



000
FTUS43 KDMX 290520
TAFALO
TAF
KALO 290520Z 2906/3006 17015KT P6SM SKC
     FM291000 18020G28KT P6SM -SHRA SCT010 BKN030
     FM291400 22022G30KT P6SM SCT010 BKN035
     FM292000 31025G34KT P6SM BKN040
     FM300000 30014KT P6SM SCT200=



000
FTUS43 KDMX 290520
TAFDSM
TAF
KDSM 290520Z 2906/3006 16014KT P6SM SKC
     FM291000 18018G26KT P6SM -SHRA SCT015 BKN060
     FM291400 24020G28KT P6SM BKN040
     FM291800 31026G34KT P6SM SCT040
     FM300000 31010KT P6SM SCT200=



000
FTUS43 KDMX 290520
TAFDSM
TAF
KDSM 290520Z 2906/3006 16014KT P6SM SKC
     FM291000 18018G26KT P6SM -SHRA SCT015 BKN060
     FM291400 24020G28KT P6SM BKN040
     FM291800 31026G34KT P6SM SCT040
     FM300000 31010KT P6SM SCT200=



000
FTUS43 KDMX 290520
TAFMCW
TAF
KMCW 290520Z 2906/3006 17016G24KT P6SM SKC
     FM291000 18022G30KT P6SM VCSH SCT015 BKN040
     FM291300 23024G32KT P6SM SCT020 BKN050
     FM291700 31030G38KT P6SM VCSH BKN040
     FM300000 30018KT P6SM SCT040
     FM300400 30010KT P6SM SCT200=



000
FTUS43 KDMX 290520
TAFFOD
TAF
KFOD 290520Z 2906/3006 16014G19KT P6SM SKC
     FM290800 19019G28KT P6SM VCSH SCT015 BKN060
     FM291300 23016G24KT P6SM BKN040
     FM291700 32020G30KT P6SM BKN040
     FM300000 31009KT P6SM SCT200=



000
FTUS43 KDMX 290520
TAFALO
TAF
KALO 290520Z 2906/3006 17015KT P6SM SKC
     FM291000 18020G28KT P6SM -SHRA SCT010 BKN030
     FM291400 22022G30KT P6SM SCT010 BKN035
     FM292000 31025G34KT P6SM BKN040
     FM300000 30014KT P6SM SCT200=



000
FTUS43 KDMX 290520
TAFALO
TAF
KALO 290520Z 2906/3006 17015KT P6SM SKC
     FM291000 18020G28KT P6SM -SHRA SCT010 BKN030
     FM291400 22022G30KT P6SM SCT010 BKN035
     FM292000 31025G34KT P6SM BKN040
     FM300000 30014KT P6SM SCT200=



000
FTUS43 KDMX 290520
TAFMCW
TAF
KMCW 290520Z 2906/3006 17016G24KT P6SM SKC
     FM291000 18022G30KT P6SM VCSH SCT015 BKN040
     FM291300 23024G32KT P6SM SCT020 BKN050
     FM291700 31030G38KT P6SM VCSH BKN040
     FM300000 30018KT P6SM SCT040
     FM300400 30010KT P6SM SCT200=



000
FTUS43 KDMX 290520
TAFOTM
TAF
KOTM 290520Z 2906/3006 16014KT P6SM SKC
     FM291100 17017G25KT P6SM -SHRA SCT015 BKN050
     FM291500 24020G28KT P6SM BKN050
     FM292000 31022G32KT P6SM BKN050
     FM300000 30009KT P6SM SCT200=



000
FTUS43 KDMX 290520
TAFOTM
TAF
KOTM 290520Z 2906/3006 16014KT P6SM SKC
     FM291100 17017G25KT P6SM -SHRA SCT015 BKN050
     FM291500 24020G28KT P6SM BKN050
     FM292000 31022G32KT P6SM BKN050
     FM300000 30009KT P6SM SCT200=



000
FTUS43 KDMX 290520
TAFMCW
TAF
KMCW 290520Z 2906/3006 17016G24KT P6SM SKC
     FM291000 18022G30KT P6SM VCSH SCT015 BKN040
     FM291300 23024G32KT P6SM SCT020 BKN050
     FM291700 31030G38KT P6SM VCSH BKN040
     FM300000 30018KT P6SM SCT040
     FM300400 30010KT P6SM SCT200=



000
FTUS43 KDMX 290520
TAFALO
TAF
KALO 290520Z 2906/3006 17015KT P6SM SKC
     FM291000 18020G28KT P6SM -SHRA SCT010 BKN030
     FM291400 22022G30KT P6SM SCT010 BKN035
     FM292000 31025G34KT P6SM BKN040
     FM300000 30014KT P6SM SCT200=



000
FTUS43 KDMX 290520
TAFFOD
TAF
KFOD 290520Z 2906/3006 16014G19KT P6SM SKC
     FM290800 19019G28KT P6SM VCSH SCT015 BKN060
     FM291300 23016G24KT P6SM BKN040
     FM291700 32020G30KT P6SM BKN040
     FM300000 31009KT P6SM SCT200=



000
FTUS43 KDMX 290520
TAFOTM
TAF
KOTM 290520Z 2906/3006 16014KT P6SM SKC
     FM291100 17017G25KT P6SM -SHRA SCT015 BKN050
     FM291500 24020G28KT P6SM BKN050
     FM292000 31022G32KT P6SM BKN050
     FM300000 30009KT P6SM SCT200=



000
FTUS43 KDMX 290520
TAFMCW
TAF
KMCW 290520Z 2906/3006 17016G24KT P6SM SKC
     FM291000 18022G30KT P6SM VCSH SCT015 BKN040
     FM291300 23024G32KT P6SM SCT020 BKN050
     FM291700 31030G38KT P6SM VCSH BKN040
     FM300000 30018KT P6SM SCT040
     FM300400 30010KT P6SM SCT200=



000
FTUS43 KDMX 290520
TAFFOD
TAF
KFOD 290520Z 2906/3006 16014G19KT P6SM SKC
     FM290800 19019G28KT P6SM VCSH SCT015 BKN060
     FM291300 23016G24KT P6SM BKN040
     FM291700 32020G30KT P6SM BKN040
     FM300000 31009KT P6SM SCT200=



000
FTUS43 KDMX 290520
TAFDSM
TAF
KDSM 290520Z 2906/3006 16014KT P6SM SKC
     FM291000 18018G26KT P6SM -SHRA SCT015 BKN060
     FM291400 24020G28KT P6SM BKN040
     FM291800 31026G34KT P6SM SCT040
     FM300000 31010KT P6SM SCT200=



000
FTUS43 KDMX 290520
TAFFOD
TAF
KFOD 290520Z 2906/3006 16014G19KT P6SM SKC
     FM290800 19019G28KT P6SM VCSH SCT015 BKN060
     FM291300 23016G24KT P6SM BKN040
     FM291700 32020G30KT P6SM BKN040
     FM300000 31009KT P6SM SCT200=



000
FTUS43 KDMX 282340
TAFMCW
TAF
KMCW 282340Z 2900/2924 16014KT P6SM SKC
     FM290900 18022G30KT P6SM VCSH SCT015 BKN040
     FM291300 24024G32KT P6SM VCSH SCT020 BKN050
     FM291700 31031G39KT P6SM SCT040=



000
FTUS43 KDMX 282340
TAFALO
TAF
KALO 282340Z 2900/2924 17014KT P6SM SKC
     FM291000 18020G28KT P6SM -SHRA SCT010 BKN030
     FM291300 22019G30KT P6SM SCT010 BKN035
     FM291900 31025G34KT P6SM SCT035=



000
FTUS43 KDMX 282340
TAFALO
TAF
KALO 282340Z 2900/2924 17014KT P6SM SKC
     FM291000 18020G28KT P6SM -SHRA SCT010 BKN030
     FM291300 22019G30KT P6SM SCT010 BKN035
     FM291900 31025G34KT P6SM SCT035=



000
FTUS43 KDMX 282340
TAFMCW
TAF
KMCW 282340Z 2900/2924 16014KT P6SM SKC
     FM290900 18022G30KT P6SM VCSH SCT015 BKN040
     FM291300 24024G32KT P6SM VCSH SCT020 BKN050
     FM291700 31031G39KT P6SM SCT040=



000
FTUS43 KDMX 282340
TAFALO
TAF
KALO 282340Z 2900/2924 17014KT P6SM SKC
     FM291000 18020G28KT P6SM -SHRA SCT010 BKN030
     FM291300 22019G30KT P6SM SCT010 BKN035
     FM291900 31025G34KT P6SM SCT035=



000
FTUS43 KDMX 282340
TAFMCW
TAF
KMCW 282340Z 2900/2924 16014KT P6SM SKC
     FM290900 18022G30KT P6SM VCSH SCT015 BKN040
     FM291300 24024G32KT P6SM VCSH SCT020 BKN050
     FM291700 31031G39KT P6SM SCT040=



000
FTUS43 KDMX 282340
TAFOTM
TAF
KOTM 282340Z 2900/2924 16011KT P6SM SKC
     FM291100 18018G25KT P6SM -SHRA SCT015 BKN050
     FM291600 25022G30KT P6SM BKN050
     FM292100 31024G33KT P6SM SCT050=



000
FTUS43 KDMX 282340
TAFDSM
TAF
KDSM 282340Z 2900/2924 17013G18KT P6SM SKC
     FM290900 18018G27KT P6SM -SHRA SCT015 BKN060
     FM291500 24022G30KT P6SM BKN040
     FM291800 31027G35KT P6SM SCT040=



000
FTUS43 KDMX 282340
TAFFOD
TAF
KFOD 282340Z 2900/2924 16013G18KT P6SM SKC
     FM290700 19020G28KT P6SM VCSH SCT015 BKN060
     FM291500 31020G30KT P6SM SCT035=



000
FTUS43 KDMX 282340
TAFOTM
TAF
KOTM 282340Z 2900/2924 16011KT P6SM SKC
     FM291100 18018G25KT P6SM -SHRA SCT015 BKN050
     FM291600 25022G30KT P6SM BKN050
     FM292100 31024G33KT P6SM SCT050=



000
FTUS43 KDMX 282340
TAFDSM
TAF
KDSM 282340Z 2900/2924 17013G18KT P6SM SKC
     FM290900 18018G27KT P6SM -SHRA SCT015 BKN060
     FM291500 24022G30KT P6SM BKN040
     FM291800 31027G35KT P6SM SCT040=



000
FTUS43 KDMX 282340
TAFFOD
TAF
KFOD 282340Z 2900/2924 16013G18KT P6SM SKC
     FM290700 19020G28KT P6SM VCSH SCT015 BKN060
     FM291500 31020G30KT P6SM SCT035=



000
FTUS43 KDMX 282340
TAFOTM
TAF
KOTM 282340Z 2900/2924 16011KT P6SM SKC
     FM291100 18018G25KT P6SM -SHRA SCT015 BKN050
     FM291600 25022G30KT P6SM BKN050
     FM292100 31024G33KT P6SM SCT050=



000
FTUS43 KDMX 282340
TAFDSM
TAF
KDSM 282340Z 2900/2924 17013G18KT P6SM SKC
     FM290900 18018G27KT P6SM -SHRA SCT015 BKN060
     FM291500 24022G30KT P6SM BKN040
     FM291800 31027G35KT P6SM SCT040=



000
FTUS43 KDMX 282340
TAFALO
TAF
KALO 282340Z 2900/2924 17014KT P6SM SKC
     FM291000 18020G28KT P6SM -SHRA SCT010 BKN030
     FM291300 22019G30KT P6SM SCT010 BKN035
     FM291900 31025G34KT P6SM SCT035=



000
FTUS43 KDMX 282340
TAFMCW
TAF
KMCW 282340Z 2900/2924 16014KT P6SM SKC
     FM290900 18022G30KT P6SM VCSH SCT015 BKN040
     FM291300 24024G32KT P6SM VCSH SCT020 BKN050
     FM291700 31031G39KT P6SM SCT040=



000
FTUS43 KDMX 282340
TAFFOD
TAF
KFOD 282340Z 2900/2924 16013G18KT P6SM SKC
     FM290700 19020G28KT P6SM VCSH SCT015 BKN060
     FM291500 31020G30KT P6SM SCT035=



000
FTUS43 KDMX 282340
TAFFOD
TAF
KFOD 282340Z 2900/2924 16013G18KT P6SM SKC
     FM290700 19020G28KT P6SM VCSH SCT015 BKN060
     FM291500 31020G30KT P6SM SCT035=



000
FTUS43 KDMX 282340
TAFOTM
TAF
KOTM 282340Z 2900/2924 16011KT P6SM SKC
     FM291100 18018G25KT P6SM -SHRA SCT015 BKN050
     FM291600 25022G30KT P6SM BKN050
     FM292100 31024G33KT P6SM SCT050=



000
FTUS43 KDMX 282340
TAFDSM
TAF
KDSM 282340Z 2900/2924 17013G18KT P6SM SKC
     FM290900 18018G27KT P6SM -SHRA SCT015 BKN060
     FM291500 24022G30KT P6SM BKN040
     FM291800 31027G35KT P6SM SCT040=



000
FTUS43 KDMX 281739
TAFMCW
TAF
KMCW 281739Z 2818/2918 16014KT P6SM SKC
     FM290800 18018G25KT P6SM VCSH BKN040
     FM291500 24024G32KT P6SM FEW030=



000
FTUS43 KDMX 281739
TAFALO
TAF
KALO 281739Z 2818/2918 15009KT P6SM SKC
     FM282100 17014KT P6SM SKC
     FM290900 17016G23KT P6SM -SHRA SCT015 BKN040
     FM291500 23018G22KT P6SM SCT015=



000
FTUS43 KDMX 281739
TAFFOD
TAF
KFOD 281739Z 2818/2918 16013G18KT P6SM FEW050
     FM290900 16016G22KT P6SM VCSH BKN040
     FM291500 31020G30KT P6SM FEW040=



000
FTUS43 KDMX 281739
TAFDSM
TAF
KDSM 281739Z 2818/2918 18013G18KT P6SM FEW060
     FM290900 17015G23KT P6SM -SHRA SCT015 BKN040
     FM291500 23020G25KT P6SM SCT015=



000
FTUS43 KDMX 281739
TAFDSM
TAF
KDSM 281739Z 2818/2918 18013G18KT P6SM FEW060
     FM290900 17015G23KT P6SM -SHRA SCT015 BKN040
     FM291500 23020G25KT P6SM SCT015=



000
FTUS43 KDMX 281739
TAFOTM
TAF
KOTM 281739Z 2818/2918 17011KT P6SM SKC
     FM290600 16014KT P6SM SCT050 BKN200
     FM291300 19017G22KT P6SM -SHRA SCT015 BKN035
     FM291700 25018G23KT P6SM SCT030=



000
FTUS43 KDMX 281739
TAFFOD
TAF
KFOD 281739Z 2818/2918 16013G18KT P6SM FEW050
     FM290900 16016G22KT P6SM VCSH BKN040
     FM291500 31020G30KT P6SM FEW040=



000
FTUS43 KDMX 281739
TAFALO
TAF
KALO 281739Z 2818/2918 15009KT P6SM SKC
     FM282100 17014KT P6SM SKC
     FM290900 17016G23KT P6SM -SHRA SCT015 BKN040
     FM291500 23018G22KT P6SM SCT015=



000
FTUS43 KDMX 281739
TAFMCW
TAF
KMCW 281739Z 2818/2918 16014KT P6SM SKC
     FM290800 18018G25KT P6SM VCSH BKN040
     FM291500 24024G32KT P6SM FEW030=



000
FTUS43 KDMX 281739
TAFMCW
TAF
KMCW 281739Z 2818/2918 16014KT P6SM SKC
     FM290800 18018G25KT P6SM VCSH BKN040
     FM291500 24024G32KT P6SM FEW030=



000
FTUS43 KDMX 281739
TAFALO
TAF
KALO 281739Z 2818/2918 15009KT P6SM SKC
     FM282100 17014KT P6SM SKC
     FM290900 17016G23KT P6SM -SHRA SCT015 BKN040
     FM291500 23018G22KT P6SM SCT015=



000
FTUS43 KDMX 281739
TAFOTM
TAF
KOTM 281739Z 2818/2918 17011KT P6SM SKC
     FM290600 16014KT P6SM SCT050 BKN200
     FM291300 19017G22KT P6SM -SHRA SCT015 BKN035
     FM291700 25018G23KT P6SM SCT030=



000
FTUS43 KDMX 281739
TAFFOD
TAF
KFOD 281739Z 2818/2918 16013G18KT P6SM FEW050
     FM290900 16016G22KT P6SM VCSH BKN040
     FM291500 31020G30KT P6SM FEW040=



000
FTUS43 KDMX 281739
TAFDSM
TAF
KDSM 281739Z 2818/2918 18013G18KT P6SM FEW060
     FM290900 17015G23KT P6SM -SHRA SCT015 BKN040
     FM291500 23020G25KT P6SM SCT015=



000
FTUS43 KDMX 281739
TAFMCW
TAF
KMCW 281739Z 2818/2918 16014KT P6SM SKC
     FM290800 18018G25KT P6SM VCSH BKN040
     FM291500 24024G32KT P6SM FEW030=



000
FTUS43 KDMX 281739
TAFDSM
TAF
KDSM 281739Z 2818/2918 18013G18KT P6SM FEW060
     FM290900 17015G23KT P6SM -SHRA SCT015 BKN040
     FM291500 23020G25KT P6SM SCT015=



000
FTUS43 KDMX 281739
TAFFOD
TAF
KFOD 281739Z 2818/2918 16013G18KT P6SM FEW050
     FM290900 16016G22KT P6SM VCSH BKN040
     FM291500 31020G30KT P6SM FEW040=



000
FTUS43 KDMX 281739
TAFALO
TAF
KALO 281739Z 2818/2918 15009KT P6SM SKC
     FM282100 17014KT P6SM SKC
     FM290900 17016G23KT P6SM -SHRA SCT015 BKN040
     FM291500 23018G22KT P6SM SCT015=



000
FTUS43 KDMX 281739
TAFOTM
TAF
KOTM 281739Z 2818/2918 17011KT P6SM SKC
     FM290600 16014KT P6SM SCT050 BKN200
     FM291300 19017G22KT P6SM -SHRA SCT015 BKN035
     FM291700 25018G23KT P6SM SCT030=



000
FTUS43 KDMX 281739
TAFOTM
TAF
KOTM 281739Z 2818/2918 17011KT P6SM SKC
     FM290600 16014KT P6SM SCT050 BKN200
     FM291300 19017G22KT P6SM -SHRA SCT015 BKN035
     FM291700 25018G23KT P6SM SCT030=



000
FTUS43 KDMX 281136
TAFDSM
TAF
KDSM 281136Z 2812/2912 13007KT P6SM BKN060
     FM281500 16011KT P6SM SCT050
     FM290700 17015G23KT P6SM VCSH BKN040=



000
FTUS43 KDMX 281136
TAFALO
TAF
KALO 281136Z 2812/2912 12006KT P6SM SCT100
     FM281600 15009KT P6SM SCT040
     FM290300 16013KT P6SM FEW050 SCT150
     FM291000 17016G23KT P6SM VCSH BKN040=



000
FTUS43 KDMX 281136
TAFMCW
TAF
KMCW 281136Z 2812/2912 15008KT P6SM BKN080
     FM281600 16013KT P6SM FEW050
     FM290800 18021G31KT P6SM VCSH BKN040=



000
FTUS43 KDMX 281136
TAFOTM
TAF
KOTM 281136Z 2812/2912 13006KT P6SM SCT100
     FM281600 15010KT P6SM FEW050
     FM290400 16014KT P6SM SCT050 BKN200=



000
FTUS43 KDMX 281136
TAFFOD
TAF
KFOD 281136Z 2812/2912 13008KT P6SM BKN045
     FM281700 15011KT P6SM SCT050
     FM290600 16016G22KT P6SM VCSH BKN040=



000
FTUS43 KDMX 281136
TAFDSM
TAF
KDSM 281136Z 2812/2912 13007KT P6SM BKN060
     FM281500 16011KT P6SM SCT050
     FM290700 17015G23KT P6SM VCSH BKN040=



000
FTUS43 KDMX 281136
TAFALO
TAF
KALO 281136Z 2812/2912 12006KT P6SM SCT100
     FM281600 15009KT P6SM SCT040
     FM290300 16013KT P6SM FEW050 SCT150
     FM291000 17016G23KT P6SM VCSH BKN040=



000
FTUS43 KDMX 281136
TAFOTM
TAF
KOTM 281136Z 2812/2912 13006KT P6SM SCT100
     FM281600 15010KT P6SM FEW050
     FM290400 16014KT P6SM SCT050 BKN200=



000
FTUS43 KDMX 281136
TAFFOD
TAF
KFOD 281136Z 2812/2912 13008KT P6SM BKN045
     FM281700 15011KT P6SM SCT050
     FM290600 16016G22KT P6SM VCSH BKN040=



000
FTUS43 KDMX 281136
TAFMCW
TAF
KMCW 281136Z 2812/2912 15008KT P6SM BKN080
     FM281600 16013KT P6SM FEW050
     FM290800 18021G31KT P6SM VCSH BKN040=



000
FTUS43 KDMX 281136
TAFOTM
TAF
KOTM 281136Z 2812/2912 13006KT P6SM SCT100
     FM281600 15010KT P6SM FEW050
     FM290400 16014KT P6SM SCT050 BKN200=



000
FTUS43 KDMX 281136
TAFDSM
TAF
KDSM 281136Z 2812/2912 13007KT P6SM BKN060
     FM281500 16011KT P6SM SCT050
     FM290700 17015G23KT P6SM VCSH BKN040=



000
FTUS43 KDMX 281136
TAFFOD
TAF
KFOD 281136Z 2812/2912 13008KT P6SM BKN045
     FM281700 15011KT P6SM SCT050
     FM290600 16016G22KT P6SM VCSH BKN040=



000
FTUS43 KDMX 281136
TAFALO
TAF
KALO 281136Z 2812/2912 12006KT P6SM SCT100
     FM281600 15009KT P6SM SCT040
     FM290300 16013KT P6SM FEW050 SCT150
     FM291000 17016G23KT P6SM VCSH BKN040=



000
FTUS43 KDMX 281136
TAFMCW
TAF
KMCW 281136Z 2812/2912 15008KT P6SM BKN080
     FM281600 16013KT P6SM FEW050
     FM290800 18021G31KT P6SM VCSH BKN040=



000
FTUS43 KDMX 281136
TAFALO
TAF
KALO 281136Z 2812/2912 12006KT P6SM SCT100
     FM281600 15009KT P6SM SCT040
     FM290300 16013KT P6SM FEW050 SCT150
     FM291000 17016G23KT P6SM VCSH BKN040=



000
FTUS43 KDMX 281136
TAFFOD
TAF
KFOD 281136Z 2812/2912 13008KT P6SM BKN045
     FM281700 15011KT P6SM SCT050
     FM290600 16016G22KT P6SM VCSH BKN040=



000
FTUS43 KDMX 281136
TAFMCW
TAF
KMCW 281136Z 2812/2912 15008KT P6SM BKN080
     FM281600 16013KT P6SM FEW050
     FM290800 18021G31KT P6SM VCSH BKN040=



000
FTUS43 KDMX 281136
TAFOTM
TAF
KOTM 281136Z 2812/2912 13006KT P6SM SCT100
     FM281600 15010KT P6SM FEW050
     FM290400 16014KT P6SM SCT050 BKN200=



000
FTUS43 KDMX 281136
TAFDSM
TAF
KDSM 281136Z 2812/2912 13007KT P6SM BKN060
     FM281500 16011KT P6SM SCT050
     FM290700 17015G23KT P6SM VCSH BKN040=



000
FTUS43 KDMX 280520
TAFFOD
TAF
KFOD 280520Z 2806/2906 12006KT P6SM BKN060
     FM281700 17014G22KT P6SM SCT040=



000
FTUS43 KDMX 280520
TAFDSM
TAF
KDSM 280520Z 2806/2906 13005KT P6SM BKN070
     FM281700 15011KT P6SM SCT050=



000
FTUS43 KDMX 280520
TAFFOD
TAF
KFOD 280520Z 2806/2906 12006KT P6SM BKN060
     FM281700 17014G22KT P6SM SCT040=



000
FTUS43 KDMX 280520
TAFDSM
TAF
KDSM 280520Z 2806/2906 13005KT P6SM BKN070
     FM281700 15011KT P6SM SCT050=



000
FTUS43 KDMX 280520
TAFMCW
TAF
KMCW 280520Z 2806/2906 13005KT P6SM BKN100
     FM281600 16013KT P6SM SCT050
     FM290200 17015KT P6SM FEW050 SCT150=



000
FTUS43 KDMX 280520
TAFMCW
TAF
KMCW 280520Z 2806/2906 13005KT P6SM BKN100
     FM281600 16013KT P6SM SCT050
     FM290200 17015KT P6SM FEW050 SCT150=



000
FTUS43 KDMX 280520
TAFOTM
TAF
KOTM 280520Z 2806/2906 11005KT P6SM BKN100
     FM281600 15010KT P6SM BKN060=



000
FTUS43 KDMX 280520
TAFDSM
TAF
KDSM 280520Z 2806/2906 13005KT P6SM BKN070
     FM281700 15011KT P6SM SCT050=



000
FTUS43 KDMX 280520
TAFALO
TAF
KALO 280520Z 2806/2906 12005KT P6SM BKN120
     FM281600 15009KT P6SM SCT040
     FM290300 16015KT P6SM FEW050 SCT150=



000
FTUS43 KDMX 280520
TAFOTM
TAF
KOTM 280520Z 2806/2906 11005KT P6SM BKN100
     FM281600 15010KT P6SM BKN060=



000
FTUS43 KDMX 280520
TAFALO
TAF
KALO 280520Z 2806/2906 12005KT P6SM BKN120
     FM281600 15009KT P6SM SCT040
     FM290300 16015KT P6SM FEW050 SCT150=



000
FTUS43 KDMX 280520
TAFMCW
TAF
KMCW 280520Z 2806/2906 13005KT P6SM BKN100
     FM281600 16013KT P6SM SCT050
     FM290200 17015KT P6SM FEW050 SCT150=



000
FTUS43 KDMX 280520
TAFFOD
TAF
KFOD 280520Z 2806/2906 12006KT P6SM BKN060
     FM281700 17014G22KT P6SM SCT040=



000
FTUS43 KDMX 280520
TAFOTM
TAF
KOTM 280520Z 2806/2906 11005KT P6SM BKN100
     FM281600 15010KT P6SM BKN060=



000
FTUS43 KDMX 280520
TAFALO
TAF
KALO 280520Z 2806/2906 12005KT P6SM BKN120
     FM281600 15009KT P6SM SCT040
     FM290300 16015KT P6SM FEW050 SCT150=



000
FTUS43 KDMX 272339
TAFDSM
TAF
KDSM 272339Z 2800/2824 VRB04KT P6SM BKN120
     FM280300 13005KT P6SM BKN080
     FM281600 15011KT P6SM BKN050=



000
FTUS43 KDMX 272339
TAFALO
TAF
KALO 272339Z 2800/2824 09004KT P6SM SCT150
     FM280600 13005KT P6SM BKN120
     FM281600 15011KT P6SM SCT040=



000
FTUS43 KDMX 272339
TAFFOD
TAF
KFOD 272339Z 2800/2824 19003KT P6SM BKN120
     FM280700 12006KT P6SM BKN060
     FM281700 17014G20KT P6SM SCT040=



000
FTUS43 KDMX 272339
TAFMCW
TAF
KMCW 272339Z 2800/2824 10004KT P6SM SCT150
     FM280500 13005KT P6SM BKN100
     FM281600 16013KT P6SM SCT040=



000
FTUS43 KDMX 272339
TAFOTM
TAF
KOTM 272339Z 2800/2824 08004KT P6SM BKN150
     FM280900 12005KT P6SM BKN080
     FM281600 15010KT P6SM BKN050=



000
FTUS43 KDMX 272339
TAFFOD
TAF
KFOD 272339Z 2800/2824 19003KT P6SM BKN120
     FM280700 12006KT P6SM BKN060
     FM281700 17014G20KT P6SM SCT040=



000
FTUS43 KDMX 272339
TAFMCW
TAF
KMCW 272339Z 2800/2824 10004KT P6SM SCT150
     FM280500 13005KT P6SM BKN100
     FM281600 16013KT P6SM SCT040=



000
FTUS43 KDMX 272339
TAFFOD
TAF
KFOD 272339Z 2800/2824 19003KT P6SM BKN120
     FM280700 12006KT P6SM BKN060
     FM281700 17014G20KT P6SM SCT040=



000
FTUS43 KDMX 272339
TAFOTM
TAF
KOTM 272339Z 2800/2824 08004KT P6SM BKN150
     FM280900 12005KT P6SM BKN080
     FM281600 15010KT P6SM BKN050=



000
FTUS43 KDMX 272339
TAFDSM
TAF
KDSM 272339Z 2800/2824 VRB04KT P6SM BKN120
     FM280300 13005KT P6SM BKN080
     FM281600 15011KT P6SM BKN050=



000
FTUS43 KDMX 272339
TAFDSM
TAF
KDSM 272339Z 2800/2824 VRB04KT P6SM BKN120
     FM280300 13005KT P6SM BKN080
     FM281600 15011KT P6SM BKN050=



000
FTUS43 KDMX 272339
TAFALO
TAF
KALO 272339Z 2800/2824 09004KT P6SM SCT150
     FM280600 13005KT P6SM BKN120
     FM281600 15011KT P6SM SCT040=



000
FTUS43 KDMX 272339
TAFALO
TAF
KALO 272339Z 2800/2824 09004KT P6SM SCT150
     FM280600 13005KT P6SM BKN120
     FM281600 15011KT P6SM SCT040=



000
FTUS43 KDMX 272339
TAFMCW
TAF
KMCW 272339Z 2800/2824 10004KT P6SM SCT150
     FM280500 13005KT P6SM BKN100
     FM281600 16013KT P6SM SCT040=



000
FTUS43 KDMX 272339
TAFOTM
TAF
KOTM 272339Z 2800/2824 08004KT P6SM BKN150
     FM280900 12005KT P6SM BKN080
     FM281600 15010KT P6SM BKN050=



000
FTUS43 KDMX 272339
TAFMCW
TAF
KMCW 272339Z 2800/2824 10004KT P6SM SCT150
     FM280500 13005KT P6SM BKN100
     FM281600 16013KT P6SM SCT040=



000
FTUS43 KDMX 272339
TAFOTM
TAF
KOTM 272339Z 2800/2824 08004KT P6SM BKN150
     FM280900 12005KT P6SM BKN080
     FM281600 15010KT P6SM BKN050=



000
FTUS43 KDMX 272339
TAFDSM
TAF
KDSM 272339Z 2800/2824 VRB04KT P6SM BKN120
     FM280300 13005KT P6SM BKN080
     FM281600 15011KT P6SM BKN050=



000
FTUS43 KDMX 272339
TAFALO
TAF
KALO 272339Z 2800/2824 09004KT P6SM SCT150
     FM280600 13005KT P6SM BKN120
     FM281600 15011KT P6SM SCT040=



000
FTUS43 KDMX 272339
TAFFOD
TAF
KFOD 272339Z 2800/2824 19003KT P6SM BKN120
     FM280700 12006KT P6SM BKN060
     FM281700 17014G20KT P6SM SCT040=



000
FTUS43 KDMX 271739
TAFDSM
TAF
KDSM 271739Z 2718/2818 VRB06KT P6SM FEW040 SCT250
     FM280300 10006KT P6SM SCT040 OVC080
     FM281500 15012KT P6SM SCT050 BKN100=



000
FTUS43 KDMX 271739
TAFALO
TAF
KALO 271739Z 2718/2818 35007KT P6SM SKC
     FM280400 VRB04KT P6SM SCT040 OVC080
     FM281600 15012KT P6SM BKN100
      AMD NOT SKED=



000
FTUS43 KDMX 271739
TAFOTM
TAF
KOTM 271739Z 2718/2818 03010KT P6SM SCT045
     FM280300 11006KT P6SM OVC080=



000
FTUS43 KDMX 271739
TAFFOD
TAF
KFOD 271739Z 2718/2818 VRB06KT P6SM SKC
     FM280500 15004KT 6SM -SN OVC040
     FM280900 12004KT P6SM BKN035
     FM281500 17011KT P6SM BKN070=



000
FTUS43 KDMX 271739
TAFFOD
TAF
KFOD 271739Z 2718/2818 VRB06KT P6SM SKC
     FM280500 15004KT 6SM -SN OVC040
     FM280900 12004KT P6SM BKN035
     FM281500 17011KT P6SM BKN070=



000
FTUS43 KDMX 271739
TAFFOD
TAF
KFOD 271739Z 2718/2818 VRB06KT P6SM SKC
     FM280500 15004KT 6SM -SN OVC040
     FM280900 12004KT P6SM BKN035
     FM281500 17011KT P6SM BKN070=



000
FTUS43 KDMX 271739
TAFDSM
TAF
KDSM 271739Z 2718/2818 VRB06KT P6SM FEW040 SCT250
     FM280300 10006KT P6SM SCT040 OVC080
     FM281500 15012KT P6SM SCT050 BKN100=



000
FTUS43 KDMX 271739
TAFALO
TAF
KALO 271739Z 2718/2818 35007KT P6SM SKC
     FM280400 VRB04KT P6SM SCT040 OVC080
     FM281600 15012KT P6SM BKN100
      AMD NOT SKED=



000
FTUS43 KDMX 271739
TAFMCW
TAF
KMCW 271739Z 2718/2818 35007KT P6SM SKC
     FM280200 13005KT P6SM SCT040 OVC080
     FM281500 16012KT P6SM BKN100=



000
FTUS43 KDMX 271739
TAFMCW
TAF
KMCW 271739Z 2718/2818 35007KT P6SM SKC
     FM280200 13005KT P6SM SCT040 OVC080
     FM281500 16012KT P6SM BKN100=



000
FTUS43 KDMX 271739
TAFMCW
TAF
KMCW 271739Z 2718/2818 35007KT P6SM SKC
     FM280200 13005KT P6SM SCT040 OVC080
     FM281500 16012KT P6SM BKN100=



000
FTUS43 KDMX 271739
TAFALO
TAF
KALO 271739Z 2718/2818 35007KT P6SM SKC
     FM280400 VRB04KT P6SM SCT040 OVC080
     FM281600 15012KT P6SM BKN100
      AMD NOT SKED=



000
FTUS43 KDMX 271739
TAFOTM
TAF
KOTM 271739Z 2718/2818 03010KT P6SM SCT045
     FM280300 11006KT P6SM OVC080=



000
FTUS43 KDMX 271739
TAFOTM
TAF
KOTM 271739Z 2718/2818 03010KT P6SM SCT045
     FM280300 11006KT P6SM OVC080=



000
FTUS43 KDMX 271739
TAFDSM
TAF
KDSM 271739Z 2718/2818 VRB06KT P6SM FEW040 SCT250
     FM280300 10006KT P6SM SCT040 OVC080
     FM281500 15012KT P6SM SCT050 BKN100=



000
FTUS43 KDMX 271739
TAFOTM
TAF
KOTM 271739Z 2718/2818 03010KT P6SM SCT045
     FM280300 11006KT P6SM OVC080=



000
FTUS43 KDMX 271739
TAFALO
TAF
KALO 271739Z 2718/2818 35007KT P6SM SKC
     FM280400 VRB04KT P6SM SCT040 OVC080
     FM281600 15012KT P6SM BKN100
      AMD NOT SKED=



000
FTUS43 KDMX 271739
TAFFOD
TAF
KFOD 271739Z 2718/2818 VRB06KT P6SM SKC
     FM280500 15004KT 6SM -SN OVC040
     FM280900 12004KT P6SM BKN035
     FM281500 17011KT P6SM BKN070=



000
FTUS43 KDMX 271739
TAFDSM
TAF
KDSM 271739Z 2718/2818 VRB06KT P6SM FEW040 SCT250
     FM280300 10006KT P6SM SCT040 OVC080
     FM281500 15012KT P6SM SCT050 BKN100=



000
FTUS43 KDMX 271739
TAFMCW
TAF
KMCW 271739Z 2718/2818 35007KT P6SM SKC
     FM280200 13005KT P6SM SCT040 OVC080
     FM281500 16012KT P6SM BKN100=



000
FTUS43 KDMX 271123
TAFMCW
TAF
KMCW 271123Z 2712/2812 35008KT P6SM SKC
     FM272100 05005KT P6SM BKN200
     FM280400 13005KT P6SM SCT040 OVC080=



000
FTUS43 KDMX 271123
TAFALO
TAF
KALO 271123Z 2712/2812 36008KT P6SM SCT200
     FM280400 10004KT P6SM SCT040 OVC080=



000
FTUS43 KDMX 271123
TAFFOD
TAF
KFOD 271123Z 2712/2812 35005KT P6SM SKC
     FM272100 27004KT P6SM BKN200
     FM280400 14004KT 6SM -SN OVC040
     FM280900 12004KT P6SM VCSH OVC025=



000
FTUS43 KDMX 271123
TAFFOD
TAF
KFOD 271123Z 2712/2812 35005KT P6SM SKC
     FM272100 27004KT P6SM BKN200
     FM280400 14004KT 6SM -SN OVC040
     FM280900 12004KT P6SM VCSH OVC025=



000
FTUS43 KDMX 271123
TAFOTM
TAF
KOTM 271123Z 2712/2812 04006KT P6SM OVC045
     FM271300 35009KT P6SM SKC
     FM280300 10005KT P6SM OVC080
     FM280900 13006KT P6SM OVC060=



000
FTUS43 KDMX 271123
TAFOTM
TAF
KOTM 271123Z 2712/2812 04006KT P6SM OVC045
     FM271300 35009KT P6SM SKC
     FM280300 10005KT P6SM OVC080
     FM280900 13006KT P6SM OVC060=



000
FTUS43 KDMX 271123
TAFMCW
TAF
KMCW 271123Z 2712/2812 35008KT P6SM SKC
     FM272100 05005KT P6SM BKN200
     FM280400 13005KT P6SM SCT040 OVC080=



000
FTUS43 KDMX 271123
TAFDSM
TAF
KDSM 271123Z 2712/2812 36007KT P6SM SKC
     FM272300 23006KT P6SM SCT200
     FM280200 11004KT P6SM OVC080
     FM280500 14007KT P6SM VCSH SCT020 OVC040
     FM280700 11006KT 6SM -SN OVC030=



000
FTUS43 KDMX 271123
TAFALO
TAF
KALO 271123Z 2712/2812 36008KT P6SM SCT200
     FM280400 10004KT P6SM SCT040 OVC080=



000
FTUS43 KDMX 271123
TAFDSM
TAF
KDSM 271123Z 2712/2812 36007KT P6SM SKC
     FM272300 23006KT P6SM SCT200
     FM280200 11004KT P6SM OVC080
     FM280500 14007KT P6SM VCSH SCT020 OVC040
     FM280700 11006KT 6SM -SN OVC030=



000
FTUS43 KDMX 270922 AAA
TAFDSM
TAF AMD
KDSM 270922Z 2709/2806 03012KT P6SM BKN035
     FM271000 35007KT P6SM SKC
     FM272000 32006KT P6SM SCT200
     FM280200 11004KT P6SM OVC080
     FM280500 14007KT P6SM VCSH SCT020 OVC040=



000
FTUS43 KDMX 270922 AAA
TAFDSM
TAF AMD
KDSM 270922Z 2709/2806 03012KT P6SM BKN035
     FM271000 35007KT P6SM SKC
     FM272000 32006KT P6SM SCT200
     FM280200 11004KT P6SM OVC080
     FM280500 14007KT P6SM VCSH SCT020 OVC040=



000
FTUS43 KDMX 270922 AAA
TAFDSM
TAF AMD
KDSM 270922Z 2709/2806 03012KT P6SM BKN035
     FM271000 35007KT P6SM SKC
     FM272000 32006KT P6SM SCT200
     FM280200 11004KT P6SM OVC080
     FM280500 14007KT P6SM VCSH SCT020 OVC040=



000
FTUS43 KDMX 270922 AAA
TAFDSM
TAF AMD
KDSM 270922Z 2709/2806 03012KT P6SM BKN035
     FM271000 35007KT P6SM SKC
     FM272000 32006KT P6SM SCT200
     FM280200 11004KT P6SM OVC080
     FM280500 14007KT P6SM VCSH SCT020 OVC040=



000
FTUS43 KDMX 270524
TAFOTM
TAF
KOTM 270524Z 2706/2806 04006KT P6SM OVC045
     FM271000 35009KT P6SM SCT200
     FM280300 10005KT P6SM OVC080=



000
FTUS43 KDMX 270524
TAFALO
TAF
KALO 270524Z 2706/2806 32010KT P6SM OVC050
     FM270700 35007KT P6SM SCT200
     FM280400 10004KT P6SM OVC080=



000
FTUS43 KDMX 270524
TAFDSM
TAF
KDSM 270524Z 2706/2806 01015KT P6SM BKN045
     FM270800 35007KT P6SM SKC
     FM272000 32006KT P6SM SCT200
     FM280200 11004KT P6SM OVC080
     FM280500 14007KT P6SM VCSH SCT020 OVC040=



000
FTUS43 KDMX 270524
TAFMCW
TAF
KMCW 270524Z 2706/2806 34013KT P6SM BKN045
     FM270700 35009KT P6SM SKC
     FM272100 05005KT P6SM BKN200
     FM280400 13005KT P6SM OVC080=



000
FTUS43 KDMX 270524
TAFDSM
TAF
KDSM 270524Z 2706/2806 01015KT P6SM BKN045
     FM270800 35007KT P6SM SKC
     FM272000 32006KT P6SM SCT200
     FM280200 11004KT P6SM OVC080
     FM280500 14007KT P6SM VCSH SCT020 OVC040=



000
FTUS43 KDMX 270524
TAFOTM
TAF
KOTM 270524Z 2706/2806 04006KT P6SM OVC045
     FM271000 35009KT P6SM SCT200
     FM280300 10005KT P6SM OVC080=



000
FTUS43 KDMX 270524
TAFMCW
TAF
KMCW 270524Z 2706/2806 34013KT P6SM BKN045
     FM270700 35009KT P6SM SKC
     FM272100 05005KT P6SM BKN200
     FM280400 13005KT P6SM OVC080=



000
FTUS43 KDMX 270524
TAFALO
TAF
KALO 270524Z 2706/2806 32010KT P6SM OVC050
     FM270700 35007KT P6SM SCT200
     FM280400 10004KT P6SM OVC080=



000
FTUS43 KDMX 270524
TAFMCW
TAF
KMCW 270524Z 2706/2806 34013KT P6SM BKN045
     FM270700 35009KT P6SM SKC
     FM272100 05005KT P6SM BKN200
     FM280400 13005KT P6SM OVC080=



000
FTUS43 KDMX 270524
TAFFOD
TAF
KFOD 270524Z 2706/2806 36010KT P6SM OVC035
     FM270800 02005KT P6SM SKC
     FM271800 VRB04KT P6SM BKN200
     FM280400 14004KT 5SM -SN BR OVC040=



000
FTUS43 KDMX 270524
TAFOTM
TAF
KOTM 270524Z 2706/2806 04006KT P6SM OVC045
     FM271000 35009KT P6SM SCT200
     FM280300 10005KT P6SM OVC080=



000
FTUS43 KDMX 270524
TAFDSM
TAF
KDSM 270524Z 2706/2806 01015KT P6SM BKN045
     FM270800 35007KT P6SM SKC
     FM272000 32006KT P6SM SCT200
     FM280200 11004KT P6SM OVC080
     FM280500 14007KT P6SM VCSH SCT020 OVC040=



000
FTUS43 KDMX 270524
TAFALO
TAF
KALO 270524Z 2706/2806 32010KT P6SM OVC050
     FM270700 35007KT P6SM SCT200
     FM280400 10004KT P6SM OVC080=



000
FTUS43 KDMX 270524
TAFALO
TAF
KALO 270524Z 2706/2806 32010KT P6SM OVC050
     FM270700 35007KT P6SM SCT200
     FM280400 10004KT P6SM OVC080=



000
FTUS43 KDMX 270524
TAFFOD
TAF
KFOD 270524Z 2706/2806 36010KT P6SM OVC035
     FM270800 02005KT P6SM SKC
     FM271800 VRB04KT P6SM BKN200
     FM280400 14004KT 5SM -SN BR OVC040=



000
FTUS43 KDMX 270524
TAFMCW
TAF
KMCW 270524Z 2706/2806 34013KT P6SM BKN045
     FM270700 35009KT P6SM SKC
     FM272100 05005KT P6SM BKN200
     FM280400 13005KT P6SM OVC080=



000
FTUS43 KDMX 270524
TAFOTM
TAF
KOTM 270524Z 2706/2806 04006KT P6SM OVC045
     FM271000 35009KT P6SM SCT200
     FM280300 10005KT P6SM OVC080=



000
FTUS43 KDMX 270524
TAFDSM
TAF
KDSM 270524Z 2706/2806 01015KT P6SM BKN045
     FM270800 35007KT P6SM SKC
     FM272000 32006KT P6SM SCT200
     FM280200 11004KT P6SM OVC080
     FM280500 14007KT P6SM VCSH SCT020 OVC040=



000
FTUS43 KDMX 270524
TAFFOD
TAF
KFOD 270524Z 2706/2806 36010KT P6SM OVC035
     FM270800 02005KT P6SM SKC
     FM271800 VRB04KT P6SM BKN200
     FM280400 14004KT 5SM -SN BR OVC040=



000
FTUS43 KDMX 270524
TAFFOD
TAF
KFOD 270524Z 2706/2806 36010KT P6SM OVC035
     FM270800 02005KT P6SM SKC
     FM271800 VRB04KT P6SM BKN200
     FM280400 14004KT 5SM -SN BR OVC040=



    US Dept of Commerce
    National Oceanic and Atmospheric Administration
    National Weather Service
    1325 East West Highway
    Silver Spring, MD 20910
    Page Author: NWS Internet Services Team
Disclaimer
Information Quality
Credits
Glossary
Privacy Policy
Freedom of Information Act (FOIA)
About Us
Career Opportunities